Race Result

Egg Nog Jog

99 Eglin Pkwy #3A, Ft Walton Beach, FL 32548
3.1 miles
Place Name Age Sex Age Group Event Time Pace
1 Matt Blunden 37 M Overall Male R 00:16:13 05:13:00
2 Ethan Mines 19 M 1M15-19 R 00:16:45 05:24:00
3 Phillip Bauer 36 M 1M35-39 R 00:17:46 05:43:00
4 Ken Lawrence 50 M Male Masters R 00:18:41 06:01:00
5 Martin Novak 36 M 2M35-39 R 00:18:41 06:01:00
6 Ryan Sloan 14 M 1M10-14 R 00:18:56 06:06:00
7 Orlando Rivera 30 M 1M30-34 R 00:19:16 06:12:00
8 Bob Walker 46 M 1M45-49 R 00:19:18 06:13:00
9 Frank McKenzie 53 M Male G/M R 00:19:45 06:22:00
10 Amber Carpenter 28 F Overall Female R 00:20:50 06:43:00
11 Mike O'Brien 63 M 1M60-64 R 00:21:02 06:47:00
12 Rick Leonardi 55 M 1M55-59 R 00:21:20 06:52:00
13 David Griffin 55 M 2M55-59 R 00:21:51 07:02:00
14 Tim Boomer Sullivan 58 M 3M55-59 R 00:21:57 07:04:00
15 Charles Duby 47 M 2M45-49 R 00:22:05 07:07:00
16 Karl Denninger 54 M 1M50-54 R 00:22:28 07:14:00
17 Dale Eiriksson 61 M 2M60-64 R 00:22:45 07:20:00
18 Cary Black 49 M 3M45-49 R 00:22:56 07:23:00
19 Mike Superman Million 62 M 3M60-64 R 00:23:08 07:27:00
20 Rob Crist 53 M 2M50-54 R 00:23:45 07:39:00
21 Amy Wells 44 F Female Masters R 00:23:54 07:42:00
22 Jeff Harris 54 M 3M50-54 R 00:24:01 07:44:00
23 Angila Walker 44 F 1F40-44 R 00:24:06 07:46:00
24 Charles McKenzie 46 M R 00:24:16 07:49:00
25 Andrea Korenek 38 F 1F35-39 R 00:24:17 07:50:00
26 Susan McKenzie 52 F Female G/M R 00:24:17 07:50:00
27 Nick Kern 69 M 1M65-69 R 00:24:23 07:51:00
28 Jenifer Tomasello 37 F 2F35-39 R 00:24:31 07:54:00
29 McKenzieToth 11 F 1F10-14 R 00:24:33 07:55:00
30 Donna Harris 48 F 1F45-49 R 00:24:39 07:57:00
31 Brian TBB Dwyer 40 M 1M40-44 R 00:24:40 07:57:00
32 Justin Norton 13 M 2M10-14 R 00:24:52 08:01:00
33 Will Armbruster 13 M 3M10-14 R 00:24:54 08:01:00
34 Mark Flynn 69 M 2M65-69 R 00:24:57 08:02:00
35 Sean Wild 17 M 2M15-19 R 00:25:17 08:09:00
36 Joe Place 33 M 2M30-34 R 00:25:42 08:17:00
37 Dennis Chavez 52 M R 00:25:48 08:19:00
38 Jennifer Fox 34 F 1F30-34 R 00:26:05 08:24:00
39 Skye Long 12 F 2F10-14 R 00:26:09 08:26:00
40 Greyton Beedie 10 M R 00:26:18 08:29:00
41 Michael Beedie 41 M 2M40-44 R 00:26:22 08:30:00
42 Velina Sweatt 55 F 1F55-59 R 00:26:30 08:32:00
43 Nadine Lawrence 54 F 1F50-54 R 00:26:36 08:34:00
44 Jason Krumm 39 M 3M35-39 R 00:26:48 08:38:00
45 Sarah Denninger 21 F 1F20-24 R 00:26:57 08:41:00
46 Robert Morrow 62 M R 00:27:06 08:44:00
47 Michelle Smith 49 F 2F45-49 R 00:27:13 08:46:00
48 Connie West 58 F 2F55-59 R 00:27:20 08:49:00
49 Jessica Jarosz 40 F 2F40-44 R 00:27:22 08:49:00
50 Holly Black 46 F 3F45-49 R 00:27:27 08:51:00
51 Sylvia Smith 60 F 1F60-64 R 00:27:40 08:55:00
52 Katherine Morrow 24 F 2F20-24 R 00:27:57 09:00:00
53 Eric Fortenberry 56 M R 00:28:09 09:04:00
54 Jessica Fortenberry 15 F 1F15-19 R 00:28:20 09:08:00
55 Jimmy Kirkland 58 M R 00:28:29 09:11:00
56 Chloe Fernander 13 F 3F10-14 R 00:28:42 09:15:00
57 Meghan Yagle 14 F y R 00:28:42 09:15:00
58 Charlotte Weaver 15 F 2F15-19 R 00:28:54 09:19:00
59 Ann Klepser 41 F 3F40-44 R 00:29:13 09:25:00
60 Peter Chalupek 47 M R 00:29:45 09:35:00
61 John Sanderson 48 M R 00:29:47 09:36:00
62 Blake Chavez 17 F 3F15-19 R 00:30:04 09:41:00
63 Jenifer Pho 41 F R 00:30:29 09:50:00
64 Dennis Samac 58 M R 00:30:32 09:50:00
65 Erin Sharp 14 F R 00:30:38 09:52:00
66 Perscilla Ritenour 33 F 2F30-34 R 00:31:01 10:00:00
67 Brian McMahon 59 M Overall Male W 00:31:37 10:11:00
68 Nancy Mann 71 F 1F70-74 R 00:31:46 10:14:00
69 William Nation 56 M R 00:31:58 10:18:00
70 Brian Weightman 49 M R 00:32:09 10:22:00
71 James Anderson 51 M R 00:32:18 10:25:00
72 Preston Cordell 8 M 1M0-9 R 00:32:20 10:25:00
73 Lily Morrow 10 F R 00:32:32 10:29:00
74 Alyssa Christopher 24 F 3F20-24 R 00:32:33 10:30:00
75 Angela Cordell 44 F R 00:33:16 10:43:00
76 Bob Love 50 M R 00:33:40 10:51:00
77 Cadence Garza 7 F 1F0-9 R 00:33:47 10:53:00
78 Alyson Garza 39 F 3F35-39 R 00:33:49 10:54:00
79 Sharon Hines 54 F 2F50-54 R 00:33:52 10:55:00
80 Greg Noble 53 M Male Masters W 00:33:58 10:57:00
81 Lesa Williams 60 F 2F60-64 R 00:34:08 11:00:00
82 Diane Keller 60 F 3F60-64 R 00:34:17 11:03:00
83 Sara Wedemeyer 23 F R 00:34:29 11:07:00
84 Darren Boigolie 53 M R 00:34:58 11:16:00
85 Emilio Garza 46 M R 00:35:31 11:27:00
86 Gaby Kirkland 59 F 3F55-59 R 00:35:41 11:30:00
87 Joan Foreman 76 F 1F75 R 00:35:50 11:33:00
88 Machenlee Jones 10 M R 00:35:51 11:33:00
89 Jeremiah Jones 36 M R 00:35:52 11:34:00
90 Debbie Henderson 62 F R 00:36:22 11:43:00
91 Hampton Baxley 8 M 2M0-9 R 00:36:53 11:53:00
92 Hamp Baxley 46 M R 00:37:38 12:08:00
93 Sharon Calbert 60 F R 00:38:07 12:17:00
94 Caden Phillips 19 M 3M15-19 R 00:38:13 12:19:00
95 Syller 16 F R 00:38:19 12:21:00
96 Cole Watson 17 M R 00:38:20 12:21:00
97 Kim Love 56 F R 00:38:31 12:25:00
98 Viviane Prybille 57 F R 00:38:40 12:28:00
99 Ana Leurinda 57 F R 00:38:49 12:31:00
100 Max McCoy 12 M R 00:39:05 12:36:00
101 Ted Duzansky 57 M Male G/M W 00:39:06 12:36:00
102 Barbara Bowen 73 F 2F70-74 R 00:39:10 12:38:00
103 Louise Fortenberry 46 F R 00:39:26 12:43:00
104 Scott Nance 54 M 1M50-59 W 00:39:27 12:43:00
105 Marsha Weaver 49 F R 00:39:28 12:43:00
106 Sandra Killlingsworth 57 F R 00:39:40 12:47:00
107 Inge Ackerman 71 F 3F70-74 R 00:39:57 12:53:00
108 Bre Ring 52 F Overall Female W 00:40:01 12:54:00
109 Sandra Bernier 56 F R 00:40:32 13:04:00
110 Bob NGB Sciretta 73 M 1M70-74 R 00:40:58 13:12:00
111 Mike Makara 54 F R 00:41:22 13:20:00
112 Lawrence Wager 71 M 1M70 W 00:41:27 13:22:00
113 Didier Juges 65 M 1M60-69 W 00:41:38 13:25:00
114 Payton Martell 8 F 2F0-9 R 00:42:05 13:34:00
115 Tiffany Martell 39 F R 00:42:05 13:34:00
116 Niki McMahon 64 F Female Masters W 00:43:37 14:04:00
117 Kimberly Hathcock 47 F R 00:43:46 14:07:00
118 Ken Wolfe 60 M R 00:45:58 14:49:00
119 Ali Pfeffer 67 F 1F65-69 R 00:46:06 14:52:00
120 Darrell Doswell 54 M 2M50-59 W 00:46:15 14:55:00
121 Ryan King 30 M 3M30-34 R 00:47:56 15:27:00
122 Joshua Sutherland 24 M 1M20-24 R 00:48:00 15:29:00
123 Brenda Shelton 66 F 2F65-69 R 00:48:01 15:29:00
124 Nicole Leurinda 19 F R 00:48:32 15:39:00
125 BANDIT 0 R 00:48:50 15:45:00
126 Amanda Colwell 40 F R 00:48:58 15:47:00
127 Katherine Beedie 39 F R 00:48:58 15:47:00
128 Jim Flash Burton 82 M 1M75 R 00:52:57 17:04:00
129 Nancy Cummings 61 F Female G/M W 00:53:44 17:20:00
130 Charles Cummings 71 M 2M70 W 00:53:51 17:22:00
131 Lee Wright 83 M 2M70 R 00:55:00 17:44:00
132 Trina McCullaugh 49 F R 00:55:30 17:54:00
133 Carole Wright 81 F 1F70 W 00:59:13 19:06:00
134 Veronica O'Brien 57 F 1F50-59 W 00:59:13 19:06:00

Contact Information Patti Horton phorton26.2@gmail.com